Thunder Bay Airport
CYQT : now visible

Airfield :











YOU CAN JOIN US ON...

 
LOGIN :

Register | Disclaimer

   EN    FR    IT 

 









Legend :    VFR   Marginal VFR   IFR   Intensive IFR   Very Intensive IFR
Visi :
Ceiling :
>= 8 km
>= 3000ft
5 to 8 km
1000 to 3000 ft
1500m to 5 km
500 to 1000 ft
800 to 1500m
200 to 500 ft
< 800m
< 200 ft
Symbols :   Thunderstorms  Fog  Heavy snow  Heavy precipitations  Wind > 20 kt






- Airport Elevation : 653 ft
- IATA code : YQT


CYQT - Thunder Bay

CURRENT METAR :
  • 221300Z 25003KT 230V310 20SM SCT230 M01/M04 A2992 RMK CI4 SLP144

EXPIRED METARs :
  • 221200Z 28003KT 20SM BKN260 M05/M06 A2991 RMK CI5 SLP143
  • 221100Z 24003KT 20SM FEW170 FEW260 M07/M07 A2991 RMK AC1CI1 AC TR SLP143

TAF TAF CYQT
Valid from the 22 at 08:00 until the 22 at 20:00 UTC


220738Z 2208/2220 27005KT P6SM SKC
BECMG 2212/2214 27010KT RMK NXT FCST BY 221400Z
CZWG FIR / North America



MET'MAP, your aeronautical weather chart ! - Copyright ORBIFLY December 2007 - Disclaimer

ORBIFLY MET'MAP TEAM :

Programming & Development : Alexandra Zaïnal
Concept & original design : Baudouin d'Aumeries
Assistance for programming : Marc-Olivier Méhu
Technical & hardware support : Manuel Goepfert

Contact : metmap@orbifly.com




SOURCES & CREDITS :

   NOAA       Earth
Advisory